Time;durP1;ratioP1;P1;durP2;ratioP2;P2;SDS_P1;SDS_P2;PMS_P1;PMS_P2;Temp;Humidity;BMP_temperature;BMP_pressure;BME280_temperature;BME280_humidity;BME280_pressure;Samples;Min_cycle;Max_cycle;Signal;HPM_P1;HPM_P2
2023/09/17 00:00:25;;;;;;;3.10;2.90;;;24.90;88.80;;;;;;6157308;23;20482;-88
2023/09/17 00:02:52;;;;;;;3.03;2.83;;;24.90;88.80;;;;;;6157207;23;20900;-89
2023/09/17 00:05:19;;;;;;;3.13;2.93;;;24.90;88.80;;;;;;6157230;23;20423;-88
2023/09/17 00:07:46;;;;;;;4.13;3.83;;;24.90;88.80;;;;;;6157000;23;20800;-88
2023/09/17 00:10:13;;;;;;;3.50;3.30;;;24.90;88.80;;;;;;6156641;23;20443;-89
2023/09/17 00:12:41;;;;;;;3.00;2.80;;;24.90;88.80;;;;;;6156988;23;20411;-89
2023/09/17 00:15:10;;;;;;;2.63;2.53;;;24.90;88.90;;;;;;6157196;23;20419;-89
2023/09/17 00:17:37;;;;;;;3.27;3.07;;;24.90;88.80;;;;;;6157165;23;20424;-89
2023/09/17 00:20:10;;;;;;;3.40;3.20;;;24.90;88.90;;;;;;6157014;23;20406;-89
2023/09/17 00:22:37;;;;;;;3.17;2.97;;;24.90;88.80;;;;;;6157118;23;20392;-89
2023/09/17 00:25:05;;;;;;;3.30;3.10;;;24.90;88.90;;;;;;6156863;23;20446;-89
2023/09/17 00:27:32;;;;;;;3.20;3.00;;;24.90;88.90;;;;;;6156333;23;20455;-88
2023/09/17 00:29:59;;;;;;;3.07;2.87;;;24.90;88.80;;;;;;6156827;23;20460;-88
2023/09/17 00:32:27;;;;;;;3.30;3.10;;;24.90;88.90;;;;;;6156876;23;20434;-88
2023/09/17 00:34:54;;;;;;;2.80;2.60;;;24.90;88.90;;;;;;6156963;23;20404;-88
2023/09/17 00:37:22;;;;;;;2.87;2.67;;;24.90;88.90;;;;;;6156486;23;20503;-88
2023/09/17 00:39:49;;;;;;;3.50;3.30;;;24.90;89.00;;;;;;6156935;23;20531;-88
2023/09/17 00:42:16;;;;;;;3.23;3.03;;;24.90;88.90;;;;;;6156293;23;20404;-89
2023/09/17 00:44:43;;;;;;;3.77;3.57;;;24.90;89.00;;;;;;6156474;23;20439;-88
2023/09/17 00:47:10;;;;;;;3.00;2.80;;;24.90;89.00;;;;;;6156295;23;20495;-88
2023/09/17 00:49:38;;;;;;;3.17;2.97;;;24.90;89.00;;;;;;6156354;23;20444;-89
2023/09/17 00:52:14;;;;;;;2.73;2.60;;;24.90;89.10;;;;;;6156423;23;20483;-89
2023/09/17 00:54:41;;;;;;;2.90;2.70;;;24.90;89.10;;;;;;6156697;23;20396;-88
2023/09/17 00:57:08;;;;;;;3.30;3.10;;;24.90;89.10;;;;;;6156378;23;20440;-89
2023/09/17 00:59:37;;;;;;;2.90;2.70;;;24.90;89.10;;;;;;6156687;23;20735;-88
2023/09/17 01:02:04;;;;;;;2.87;2.67;;;24.90;89.00;;;;;;6156275;23;20439;-89
2023/09/17 01:04:32;;;;;;;2.63;2.43;;;24.90;89.10;;;;;;6156645;23;20411;-88
2023/09/17 01:07:01;;;;;;;2.90;2.70;;;24.90;89.00;;;;;;6156490;23;20494;-88
2023/09/17 01:09:29;;;;;;;3.10;2.90;;;24.90;88.90;;;;;;6156472;23;20538;-89
2023/09/17 01:11:57;;;;;;;2.57;2.43;;;24.90;89.00;;;;;;6156339;23;20439;-89
2023/09/17 01:14:24;;;;;;;2.97;2.77;;;24.90;89.90;;;;;;6156242;23;20432;-89
2023/09/17 01:16:51;;;;;;;2.90;2.70;;;24.90;89.00;;;;;;6156189;23;20436;-88
2023/09/17 01:19:28;;;;;;;3.07;2.87;;;24.90;89.10;;;;;;6156244;23;20983;-89
2023/09/17 01:22:03;;;;;;;2.97;2.77;;;24.90;89.10;;;;;;6156040;23;20395;-88
2023/09/17 01:24:40;;;;;;;3.40;2.90;;;24.90;89.00;;;;;;6156271;23;20396;-89
2023/09/17 01:27:11;;;;;;;3.10;2.90;;;24.90;89.00;;;;;;6156348;23;20395;-89
2023/09/17 01:29:40;;;;;;;3.33;3.13;;;24.90;89.00;;;;;;6156432;23;20435;-88
2023/09/17 01:32:08;;;;;;;2.90;2.70;;;24.80;89.00;;;;;;6155896;23;20404;-89
2023/09/17 01:34:37;;;;;;;3.20;3.00;;;24.80;89.00;;;;;;6156434;23;20462;-88
2023/09/17 01:37:09;;;;;;;2.97;2.67;;;24.90;89.10;;;;;;6155856;23;20424;-89
2023/09/17 01:39:42;;;;;;;3.10;2.83;;;24.80;89.80;;;;;;6156418;23;20859;-89
2023/09/17 01:42:12;;;;;;;2.83;2.63;;;24.80;89.00;;;;;;6155962;23;20719;-88
2023/09/17 01:44:40;;;;;;;3.00;2.80;;;24.80;89.00;;;;;;6156065;23;20479;-88
2023/09/17 01:47:07;;;;;;;2.77;2.57;;;24.80;88.90;;;;;;6156336;23;20408;-89
2023/09/17 01:49:35;;;;;;;3.20;3.00;;;24.80;89.00;;;;;;6155842;23;20454;-89
2023/09/17 01:52:03;;;;;;;2.90;2.70;;;24.80;89.00;;;;;;6156224;23;20491;-89
2023/09/17 01:54:31;;;;;;;2.83;2.63;;;24.80;89.00;;;;;;6155851;23;20408;-89
2023/09/17 01:56:57;;;;;;;2.80;2.60;;;24.80;88.90;;;;;;6156412;23;20733;-88
2023/09/17 01:59:26;;;;;;;2.50;2.30;;;24.80;89.00;;;;;;6156017;23;20442;-89
2023/09/17 02:01:52;;;;;;;3.47;3.20;;;24.80;89.00;;;;;;6156083;23;20396;-89
2023/09/17 02:04:19;;;;;;;2.70;2.50;;;24.80;89.00;;;;;;6156229;23;20786;-89
2023/09/17 02:06:47;;;;;;;2.97;2.77;;;24.80;89.00;;;;;;6156087;23;20415;-89
2023/09/17 02:09:14;;;;;;;2.80;2.60;;;24.80;89.00;;;;;;6156108;23;20443;-88
2023/09/17 02:11:41;;;;;;;2.73;2.60;;;24.80;89.00;;;;;;6156076;23;20764;-89
2023/09/17 02:14:08;;;;;;;2.97;2.77;;;24.80;89.00;;;;;;6156110;23;20411;-89
2023/09/17 02:16:37;;;;;;;3.80;2.70;;;24.80;89.00;;;;;;6156103;23;20435;-88
2023/09/17 02:19:04;;;;;;;2.70;2.50;;;24.80;89.00;;;;;;6156226;23;20492;-88
2023/09/17 02:21:31;;;;;;;3.40;3.20;;;24.80;89.00;;;;;;6156262;23;20414;-89
2023/09/17 02:23:58;;;;;;;2.73;2.53;;;24.80;89.00;;;;;;6156009;23;20403;-89
2023/09/17 02:26:25;;;;;;;3.23;3.03;;;24.80;89.00;;;;;;6156255;23;20431;-89
2023/09/17 02:28:51;;;;;;;3.10;2.77;;;24.80;89.00;;;;;;6155277;23;20446;-89
2023/09/17 02:31:18;;;;;;;3.10;2.90;;;24.80;89.00;;;;;;6156183;23;20384;-89
2023/09/17 02:33:46;;;;;;;3.00;2.80;;;24.80;89.00;;;;;;6156125;23;20411;-89
2023/09/17 02:36:14;;;;;;;2.73;2.53;;;24.80;89.00;;;;;;6156511;23;20498;-88
2023/09/17 02:38:41;;;;;;;2.90;2.70;;;24.80;89.00;;;;;;6158047;23;20404;-89
2023/09/17 02:41:08;;;;;;;2.53;2.43;;;24.80;89.00;;;;;;6158193;23;20406;-89
2023/09/17 02:43:36;;;;;;;3.00;2.60;;;24.80;89.00;;;;;;6158178;23;20783;-89
2023/09/17 02:46:03;;;;;;;2.60;2.40;;;24.80;89.00;;;;;;6157924;23;20403;-89
2023/09/17 02:48:30;;;;;;;3.47;3.27;;;24.80;89.00;;;;;;6157549;23;20418;-88
2023/09/17 02:50:59;;;;;;;3.07;2.87;;;24.80;89.00;;;;;;6157726;23;20779;-88
2023/09/17 02:53:26;;;;;;;3.03;2.83;;;24.80;89.00;;;;;;6157495;23;20911;-89
2023/09/17 02:55:53;;;;;;;2.50;2.40;;;24.80;89.00;;;;;;6158325;23;20490;-89
2023/09/17 02:58:20;;;;;;;3.27;3.07;;;24.80;89.00;;;;;;6157464;23;20491;-89
2023/09/17 03:00:47;;;;;;;2.90;2.70;;;24.80;89.00;;;;;;6157780;23;20482;-89
2023/09/17 03:03:15;;;;;;;2.80;2.60;;;24.80;89.00;;;;;;6157777;23;20527;-89
2023/09/17 03:05:45;;;;;;;2.80;2.60;;;24.80;89.00;;;;;;6157626;23;20427;-89
2023/09/17 03:08:14;;;;;;;3.67;3.40;;;24.80;89.00;;;;;;6157786;23;20400;-88
2023/09/17 03:10:42;;;;;;;3.70;3.40;;;24.80;89.00;;;;;;6157253;23;20990;-89
2023/09/17 03:13:08;;;;;;;2.83;2.63;;;24.80;89.00;;;;;;6157252;23;20396;-88
2023/09/17 03:15:35;;;;;;;3.50;3.20;;;24.80;89.00;;;;;;6157669;23;20442;-89
2023/09/17 03:18:02;;;;;;;2.77;2.57;;;24.80;89.00;;;;;;6157184;23;20482;-89
2023/09/17 03:20:33;;;;;;;2.53;2.33;;;24.80;89.00;;;;;;6157209;23;20490;-89
2023/09/17 03:23:02;;;;;;;3.00;2.80;;;24.80;89.00;;;;;;6157139;23;20410;-89
2023/09/17 03:25:31;;;;;;;3.60;3.40;;;24.80;89.00;;;;;;6157621;23;20704;-89
2023/09/17 03:27:59;;;;;;;2.50;2.37;;;24.80;89.00;;;;;;6157093;23;20434;-89
2023/09/17 03:30:26;;;;;;;2.80;2.60;;;24.80;89.00;;;;;;6157043;23;20826;-88
2023/09/17 03:32:53;;;;;;;3.03;2.83;;;24.80;89.00;;;;;;6157200;23;20907;-89
2023/09/17 03:35:20;;;;;;;2.70;2.50;;;24.80;89.00;;;;;;6157082;23;20447;-89
2023/09/17 03:37:47;;;;;;;2.83;2.63;;;24.80;89.00;;;;;;6157197;23;20404;-89
2023/09/17 03:40:15;;;;;;;3.00;2.80;;;24.80;88.90;;;;;;6157562;23;20415;-88
2023/09/17 03:42:46;;;;;;;3.00;2.80;;;24.80;89.00;;;;;;6157096;23;20478;-88
2023/09/17 03:45:14;;;;;;;2.73;2.53;;;24.80;88.90;;;;;;6157470;23;20447;-88
2023/09/17 03:47:42;;;;;;;3.23;3.03;;;24.80;88.90;;;;;;6156673;23;20919;-89
2023/09/17 03:50:09;;;;;;;2.77;2.60;;;24.80;88.90;;;;;;6157355;23;20455;-88
2023/09/17 03:52:38;;;;;;;3.03;2.83;;;24.80;89.00;;;;;;6157282;23;20483;-88
2023/09/17 03:55:07;;;;;;;2.90;2.70;;;24.80;88.90;;;;;;6156907;23;20431;-89
2023/09/17 03:57:35;;;;;;;2.80;2.70;;;24.80;88.90;;;;;;6157285;23;20408;-88
2023/09/17 04:00:07;;;;;;;2.43;2.23;;;24.80;88.90;;;;;;6157006;23;20748;-89
2023/09/17 04:02:34;;;;;;;2.40;2.30;;;24.80;88.90;;;;;;6156756;23;20428;-89
2023/09/17 04:05:01;;;;;;;2.70;2.50;;;24.80;88.90;;;;;;6157293;23;20400;-88
2023/09/17 04:07:28;;;;;;;2.77;2.57;;;24.80;88.90;;;;;;6157125;23;20461;-89
2023/09/17 04:09:55;;;;;;;2.50;2.40;;;24.80;88.90;;;;;;6156558;23;20452;-89
2023/09/17 04:12:21;;;;;;;3.50;3.30;;;24.80;88.90;;;;;;6156761;23;20940;-89
2023/09/17 04:14:48;;;;;;;2.70;2.60;;;24.80;88.90;;;;;;6156769;23;20403;-89
2023/09/17 04:17:16;;;;;;;3.13;2.93;;;24.80;88.90;;;;;;6157144;23;20404;-89
2023/09/17 04:19:43;;;;;;;2.80;2.60;;;24.80;88.80;;;;;;6157015;23;20435;-88
2023/09/17 04:22:10;;;;;;;2.37;2.27;;;24.80;88.90;;;;;;6156955;23;20411;-89
2023/09/17 04:24:38;;;;;;;2.73;2.43;;;24.80;88.80;;;;;;6157044;23;20739;-89
2023/09/17 04:27:05;;;;;;;2.57;2.37;;;24.80;88.80;;;;;;6156489;23;20756;-89
2023/09/17 04:29:32;;;;;;;3.20;3.00;;;24.80;88.80;;;;;;6156770;23;20481;-88
2023/09/17 04:31:59;;;;;;;2.70;2.50;;;24.80;88.80;;;;;;6156906;23;20411;-88
2023/09/17 04:34:27;;;;;;;2.80;2.60;;;24.80;88.80;;;;;;6156918;23;20491;-89
2023/09/17 04:36:54;;;;;;;2.80;2.60;;;24.80;88.80;;;;;;6156777;23;20462;-89
2023/09/17 04:39:21;;;;;;;2.80;2.60;;;24.80;88.80;;;;;;6156812;23;20423;-89
2023/09/17 04:41:48;;;;;;;2.80;2.60;;;24.80;88.80;;;;;;6156525;23;20404;-88
2023/09/17 04:44:15;;;;;;;3.03;2.83;;;24.80;88.80;;;;;;6156921;23;20410;-89
2023/09/17 04:46:43;;;;;;;3.30;3.10;;;24.80;88.80;;;;;;6156475;23;20442;-89
2023/09/17 04:49:10;;;;;;;3.17;2.97;;;24.80;88.80;;;;;;6156596;23;20403;-89
2023/09/17 04:51:38;;;;;;;2.70;2.53;;;24.70;88.70;;;;;;6156662;23;20483;-89
2023/09/17 04:54:06;;;;;;;2.67;2.47;;;24.80;88.80;;;;;;6156277;23;20427;-89
2023/09/17 04:56:33;;;;;;;2.77;2.53;;;24.80;88.80;;;;;;6156751;23;20400;-88
2023/09/17 04:58:59;;;;;;;3.00;2.77;;;24.80;88.80;;;;;;6155871;23;20467;-88
2023/09/17 05:01:27;;;;;;;2.80;2.60;;;24.80;88.80;;;;;;6156262;23;20934;-89
2023/09/17 05:03:54;;;;;;;2.73;2.53;;;24.80;88.80;;;;;;6156578;23;20408;-89
2023/09/17 05:06:20;;;;;;;2.53;2.33;;;24.80;88.90;;;;;;6156569;23;20510;-89
2023/09/17 05:08:49;;;;;;;3.00;2.80;;;24.80;88.80;;;;;;6156465;23;20757;-89
2023/09/17 05:11:15;;;;;;;2.80;2.60;;;24.80;88.80;;;;;;6156532;23;20526;-88
2023/09/17 05:13:42;;;;;;;3.37;2.80;;;24.80;88.80;;;;;;6156356;23;20798;-89
2023/09/17 05:16:10;;;;;;;3.03;2.83;;;24.70;88.70;;;;;;6156579;23;20490;-88
2023/09/17 05:18:38;;;;;;;3.00;2.80;;;24.70;88.70;;;;;;6156649;23;20733;-89
2023/09/17 05:21:05;;;;;;;2.70;2.50;;;24.70;88.70;;;;;;6156401;23;20403;-89
2023/09/17 05:23:32;;;;;;;2.93;2.73;;;24.80;88.80;;;;;;6156472;23;20438;-89
2023/09/17 05:26:00;;;;;;;2.57;2.37;;;24.70;88.60;;;;;;6156442;23;20787;-89
2023/09/17 05:28:27;;;;;;;2.50;2.30;;;24.70;89.50;;;;;;6155951;23;20519;-88
2023/09/17 05:30:56;;;;;;;2.60;2.40;;;24.70;88.70;;;;;;6155897;23;20486;-88
2023/09/17 05:33:23;;;;;;;3.07;2.87;;;24.70;88.70;;;;;;6155959;23;20483;-89
2023/09/17 05:35:56;;;;;;;2.97;2.77;;;24.70;88.70;;;;;;6156418;23;20423;-88
2023/09/17 05:38:23;;;;;;;2.53;2.40;;;24.70;88.60;;;;;;6155994;23;20963;-88
2023/09/17 05:40:50;;;;;;;2.70;2.50;;;24.70;89.50;;;;;;6156309;23;20495;-88
2023/09/17 05:43:18;;;;;;;2.77;2.57;;;24.70;88.60;;;;;;6155901;23;20486;-89
2023/09/17 05:45:45;;;;;;;2.77;2.60;;;24.70;88.60;;;;;;6156265;23;20486;-88
2023/09/17 05:48:12;;;;;;;2.57;2.37;;;24.70;88.70;;;;;;6155792;23;20491;-89
2023/09/17 05:50:38;;;;;;;3.23;3.03;;;24.70;88.60;;;;;;6156120;23;20493;-89
2023/09/17 05:53:05;;;;;;;3.17;2.97;;;24.70;88.70;;;;;;6156231;23;20491;-88
2023/09/17 05:55:32;;;;;;;2.70;2.50;;;24.70;88.70;;;;;;6155853;23;20490;-88
2023/09/17 05:57:59;;;;;;;3.00;2.83;;;24.70;88.70;;;;;;6155840;23;20404;-89
2023/09/17 06:00:27;;;;;;;2.83;2.63;;;24.70;88.70;;;;;;6156155;23;20493;-88
2023/09/17 06:02:54;;;;;;;2.93;2.73;;;24.70;88.70;;;;;;6156205;23;20428;-89
2023/09/17 06:05:21;;;;;;;3.10;2.90;;;24.70;88.70;;;;;;6156165;23;20404;-89
2023/09/17 06:07:48;;;;;;;2.80;2.60;;;24.70;88.70;;;;;;6155671;23;20744;-88
2023/09/17 06:10:15;;;;;;;2.57;2.37;;;24.70;88.80;;;;;;6156015;23;20531;-89
2023/09/17 06:12:42;;;;;;;3.00;2.80;;;24.70;88.70;;;;;;6156140;23;20438;-89
2023/09/17 06:15:09;;;;;;;2.70;2.60;;;24.70;88.70;;;;;;6155765;23;20919;-89
2023/09/17 06:17:37;;;;;;;2.83;2.63;;;24.70;88.70;;;;;;6156156;23;20404;-88
2023/09/17 06:20:05;;;;;;;2.40;2.30;;;24.70;88.70;;;;;;6155992;23;20399;-88
2023/09/17 06:22:32;;;;;;;2.53;2.43;;;24.70;88.70;;;;;;6155904;23;20625;-89
2023/09/17 06:24:59;;;;;;;2.90;2.70;;;24.70;88.70;;;;;;6156209;23;20483;-88
2023/09/17 06:27:26;;;;;;;2.87;2.67;;;24.70;88.70;;;;;;6155814;23;20459;-89
2023/09/17 06:29:53;;;;;;;2.50;2.37;;;24.70;88.80;;;;;;6155492;23;20891;-88
2023/09/17 06:32:20;;;;;;;2.80;2.60;;;24.70;88.70;;;;;;6156066;23;20435;-89
2023/09/17 06:34:48;;;;;;;2.83;2.63;;;24.70;88.70;;;;;;6156107;23;20427;-88
2023/09/17 06:37:15;;;;;;;2.67;2.50;;;24.70;88.80;;;;;;6155988;23;20447;-88
2023/09/17 06:39:43;;;;;;;2.53;2.33;;;24.70;88.70;;;;;;6155730;23;20427;-89
2023/09/17 06:42:10;;;;;;;2.73;2.53;;;24.70;88.70;;;;;;6155969;23;20406;-88
2023/09/17 06:44:37;;;;;;;2.33;2.13;;;24.70;88.70;;;;;;6156170;23;20403;-88
2023/09/17 06:47:05;;;;;;;2.80;2.60;;;24.70;88.70;;;;;;6155765;23;20438;-89
2023/09/17 06:49:31;;;;;;;2.90;2.70;;;24.70;88.80;;;;;;6155980;23;20404;-88
2023/09/17 06:52:00;;;;;;;2.60;2.40;;;24.70;88.70;;;;;;6156020;23;20534;-88
2023/09/17 06:54:27;;;;;;;2.47;2.37;;;24.70;88.80;;;;;;6155923;23;20446;-89
2023/09/17 06:56:53;;;;;;;3.07;2.87;;;24.70;88.70;;;;;;6155614;23;20439;-88
2023/09/17 06:59:20;;;;;;;2.90;2.70;;;24.70;88.70;;;;;;6156072;23;20403;-89
2023/09/17 07:01:47;;;;;;;2.57;2.47;;;24.70;88.70;;;;;;6155832;23;20515;-89
2023/09/17 07:04:14;;;;;;;3.17;2.97;;;24.70;88.80;;;;;;6155686;23;20439;-88
2023/09/17 07:06:41;;;;;;;2.63;2.43;;;24.70;88.80;;;;;;6155873;23;20452;-89
2023/09/17 07:09:09;;;;;;;2.60;2.40;;;24.70;89.60;;;;;;6155885;23;20431;-89
2023/09/17 07:11:36;;;;;;;2.53;2.33;;;24.70;88.80;;;;;;6155438;23;20448;-89
2023/09/17 07:14:08;;;;;;;2.70;2.50;;;24.70;88.80;;;;;;6155968;23;20459;-89
2023/09/17 07:16:35;;;;;;;2.33;2.23;;;24.70;88.80;;;;;;6155706;23;20483;-88
2023/09/17 07:19:03;;;;;;;2.30;2.20;;;24.70;88.80;;;;;;6155609;23;20910;-89
2023/09/17 07:21:31;;;;;;;3.03;2.73;;;24.70;88.80;;;;;;6155327;23;20431;-89
2023/09/17 07:23:57;;;;;;;2.60;2.40;;;24.70;88.80;;;;;;6157543;23;20438;-88
2023/09/17 07:26:26;;;;;;;2.40;2.30;;;24.70;88.90;;;;;;6157639;23;20427;-89
2023/09/17 07:28:52;;;;;;;2.80;2.60;;;24.80;89.00;;;;;;6157029;23;20522;-89
2023/09/17 07:31:19;;;;;;;2.43;2.30;;;24.80;89.00;;;;;;6157370;23;20457;-89
2023/09/17 07:33:46;;;;;;;2.37;2.27;;;24.80;88.90;;;;;;6157252;23;20922;-88
2023/09/17 07:36:13;;;;;;;2.60;2.40;;;24.80;88.90;;;;;;6157511;23;20462;-89
2023/09/17 07:38:40;;;;;;;2.37;2.27;;;24.80;88.80;;;;;;6157503;23;20781;-88
2023/09/17 07:41:07;;;;;;;2.60;2.40;;;24.80;88.70;;;;;;6157014;23;20928;-88
2023/09/17 07:43:36;;;;;;;2.60;2.40;;;24.80;88.70;;;;;;6157284;23;20400;-88
2023/09/17 07:46:03;;;;;;;1.97;1.87;;;24.80;88.70;;;;;;6157426;23;20814;-89
2023/09/17 07:48:30;;;;;;;2.30;2.20;;;24.80;88.70;;;;;;6157292;23;20404;-89
2023/09/17 07:50:58;;;;;;;2.30;2.20;;;24.80;88.70;;;;;;6157355;23;20443;-88
2023/09/17 07:53:25;;;;;;;2.40;2.20;;;24.80;88.70;;;;;;6157340;23;20775;-88
2023/09/17 07:55:52;;;;;;;2.17;2.07;;;24.80;88.70;;;;;;6157056;23;20400;-89
2023/09/17 07:58:20;;;;;;;2.07;1.97;;;24.80;88.70;;;;;;6157417;23;20943;-89
2023/09/17 08:00:48;;;;;;;2.17;2.07;;;24.80;88.70;;;;;;6157256;23;20428;-88
2023/09/17 08:03:16;;;;;;;2.13;2.03;;;24.80;88.70;;;;;;6157160;23;20482;-89
2023/09/17 08:05:45;;;;;;;2.00;1.90;;;24.80;89.50;;;;;;6157123;23;20456;-89
2023/09/17 08:08:11;;;;;;;2.50;2.30;;;24.80;88.70;;;;;;6156699;23;20407;-89
2023/09/17 08:10:39;;;;;;;2.67;2.47;;;24.80;88.70;;;;;;6157104;23;20474;-89
2023/09/17 08:13:06;;;;;;;2.10;2.00;;;24.80;88.70;;;;;;6157154;23;20428;-89
2023/09/17 08:15:33;;;;;;;2.00;1.90;;;24.80;88.60;;;;;;6156783;23;20414;-89
2023/09/17 08:18:01;;;;;;;2.37;2.27;;;24.80;88.50;;;;;;6157055;23;20487;-89
2023/09/17 08:20:28;;;;;;;1.93;1.83;;;24.80;88.40;;;;;;6157127;23;20431;-88
2023/09/17 08:22:57;;;;;;;2.20;2.07;;;24.80;88.30;;;;;;6156531;23;20943;-89
2023/09/17 08:25:24;;;;;;;2.60;2.40;;;24.80;88.30;;;;;;6156627;23;20490;-89
2023/09/17 08:27:52;;;;;;;2.60;2.40;;;24.80;88.30;;;;;;6156715;23;20432;-88
2023/09/17 08:30:20;;;;;;;2.20;2.10;;;24.80;88.20;;;;;;6156873;23;20404;-89
2023/09/17 08:32:47;;;;;;;2.17;2.07;;;24.90;88.40;;;;;;6156952;23;20403;-88
2023/09/17 08:35:15;;;;;;;2.23;2.13;;;24.90;88.40;;;;;;6156785;23;20486;-89
2023/09/17 08:37:43;;;;;;;2.13;2.03;;;24.90;88.30;;;;;;6156702;23;20447;-89
2023/09/17 08:40:14;;;;;;;2.20;2.10;;;24.90;88.30;;;;;;6156593;23;20491;-89
2023/09/17 08:42:42;;;;;;;2.30;2.20;;;24.90;88.30;;;;;;6156880;23;20396;-89
2023/09/17 08:45:10;;;;;;;2.37;2.17;;;24.90;88.30;;;;;;6156926;23;20410;-89
2023/09/17 08:47:38;;;;;;;2.37;2.23;;;24.90;88.30;;;;;;6156652;23;20500;-89
2023/09/17 08:50:07;;;;;;;2.00;1.90;;;24.90;88.30;;;;;;6156878;23;20396;-88
2023/09/17 08:52:39;;;;;;;2.40;2.30;;;25.00;88.40;;;;;;6156564;23;20447;-89
2023/09/17 08:55:09;;;;;;;2.13;2.03;;;25.00;88.40;;;;;;6156831;23;20393;-89
2023/09/17 08:57:38;;;;;;;2.27;2.17;;;25.00;88.40;;;;;;6156687;23;20404;-89
2023/09/17 09:00:09;;;;;;;2.33;2.23;;;25.00;88.50;;;;;;6156346;23;20486;-89
2023/09/17 09:02:43;;;;;;;2.17;2.07;;;25.00;88.50;;;;;;6156624;23;20402;-89
2023/09/17 09:05:15;;;;;;;2.27;2.07;;;25.00;88.50;;;;;;6156329;23;20464;-88
2023/09/17 09:07:44;;;;;;;2.20;2.10;;;25.00;88.50;;;;;;6156569;23;20392;-88
2023/09/17 09:10:13;;;;;;;2.67;2.47;;;25.00;88.50;;;;;;6157015;23;20450;-89
2023/09/17 09:12:41;;;;;;;2.10;2.00;;;25.00;88.60;;;;;;6156387;23;20559;-89
2023/09/17 09:15:10;;;;;;;2.30;2.20;;;25.00;88.50;;;;;;6156596;23;20407;-89
2023/09/17 09:17:38;;;;;;;2.20;2.10;;;25.10;88.70;;;;;;6156498;23;20490;-89
2023/09/17 09:20:09;;;;;;;2.10;2.00;;;25.10;88.70;;;;;;6156139;23;20927;-89
2023/09/17 09:22:36;;;;;;;2.40;2.27;;;25.10;88.70;;;;;;6156514;23;20400;-89
2023/09/17 09:25:06;;;;;;;1.93;1.83;;;25.10;88.70;;;;;;6156076;23;21068;-89
2023/09/17 09:27:33;;;;;;;2.10;2.00;;;25.10;88.70;;;;;;6156267;23;20439;-89
2023/09/17 09:30:00;;;;;;;2.20;2.10;;;25.10;88.70;;;;;;6156086;23;20439;-89
2023/09/17 09:32:26;;;;;;;2.10;2.00;;;25.10;88.70;;;;;;6156015;23;20946;-89
2023/09/17 09:34:53;;;;;;;2.00;1.90;;;25.10;88.70;;;;;;6156380;23;20503;-89
2023/09/17 09:37:22;;;;;;;2.47;2.37;;;25.10;88.70;;;;;;6156241;23;20458;-89
2023/09/17 09:39:50;;;;;;;2.33;2.23;;;25.10;88.80;;;;;;6156474;23;20463;-89
2023/09/17 09:42:18;;;;;;;2.60;2.40;;;25.20;88.90;;;;;;6156237;23;20495;-88
2023/09/17 09:44:46;;;;;;;1.90;1.80;;;25.20;88.80;;;;;;6155839;23;20486;-88
2023/09/17 09:47:14;;;;;;;2.47;2.27;;;25.20;88.80;;;;;;6155897;23;20983;-89
2023/09/17 09:49:42;;;;;;;2.20;2.10;;;25.20;88.80;;;;;;6155862;23;20438;-90
2023/09/17 09:52:09;;;;;;;2.13;2.03;;;25.20;88.80;;;;;;6155760;23;20444;-89
2023/09/17 09:54:36;;;;;;;2.20;2.00;;;25.20;88.70;;;;;;6156210;23;20434;-89
2023/09/17 09:57:04;;;;;;;1.90;1.80;;;25.20;88.90;;;;;;6156211;23;20482;-88
2023/09/17 09:59:33;;;;;;;1.87;1.77;;;25.20;88.80;;;;;;6155995;23;20809;-89
2023/09/17 10:02:02;;;;;;;2.27;2.10;;;25.20;88.90;;;;;;6156279;23;20432;-89
2023/09/17 10:04:29;;;;;;;1.93;1.83;;;25.20;88.80;;;;;;6156241;23;20396;-89
2023/09/17 10:06:57;;;;;;;2.37;2.27;;;25.20;88.90;;;;;;6155895;23;20446;-89
2023/09/17 10:09:25;;;;;;;2.33;2.23;;;25.20;88.90;;;;;;6156177;23;20474;-89
2023/09/17 10:11:52;;;;;;;2.00;1.90;;;25.20;88.90;;;;;;6155975;23;20447;-89
2023/09/17 10:14:21;;;;;;;2.33;2.13;;;25.20;89.00;;;;;;6156321;23;20399;-89
2023/09/17 10:16:50;;;;;;;2.00;1.90;;;25.20;89.00;;;;;;6156023;23;20462;-89
2023/09/17 10:19:20;;;;;;;1.90;1.70;;;25.30;89.00;;;;;;6155952;23;20435;-89
2023/09/17 10:21:48;;;;;;;2.10;2.00;;;25.30;89.00;;;;;;6155941;23;20422;-89
2023/09/17 10:24:16;;;;;;;2.30;2.20;;;25.30;89.00;;;;;;6156069;23;20498;-89
2023/09/17 10:26:44;;;;;;;1.87;1.77;;;25.30;89.00;;;;;;6155712;23;20412;-89
2023/09/17 10:29:12;;;;;;;2.50;2.30;;;25.30;89.00;;;;;;6155486;23;20518;-89
2023/09/17 10:31:41;;;;;;;2.10;2.00;;;25.30;89.00;;;;;;6155890;23;20518;-89
2023/09/17 10:34:10;;;;;;;2.10;2.00;;;25.20;89.00;;;;;;6156076;23;20963;-89
2023/09/17 10:36:39;;;;;;;2.10;2.00;;;25.20;89.90;;;;;;6155594;23;20482;-89
2023/09/17 10:39:09;;;;;;;2.10;2.00;;;25.20;89.00;;;;;;6155952;23;20498;-89
2023/09/17 10:41:38;;;;;;;2.07;1.97;;;25.20;89.10;;;;;;6156022;23;20384;-89
2023/09/17 10:44:07;;;;;;;2.07;1.97;;;25.20;89.10;;;;;;6155752;23;20482;-89
2023/09/17 10:46:36;;;;;;;1.97;1.87;;;25.20;89.20;;;;;;6155765;23;20933;-89
2023/09/17 10:49:06;;;;;;;3.50;2.30;;;25.30;89.30;;;;;;6155905;23;20404;-89
2023/09/17 10:51:34;;;;;;;2.17;2.07;;;25.30;89.30;;;;;;6155984;23;20486;-89
2023/09/17 10:54:03;;;;;;;2.03;1.90;;;25.30;89.30;;;;;;6155850;23;20491;-89
2023/09/17 10:56:29;;;;;;;2.00;1.90;;;25.30;89.30;;;;;;6155706;23;20411;-89
2023/09/17 10:58:57;;;;;;;2.13;1.87;;;25.30;89.30;;;;;;6158106;23;20424;-89
2023/09/17 11:01:28;;;;;;;1.90;1.80;;;25.30;89.30;;;;;;6157733;23;20407;-88
2023/09/17 11:04:00;;;;;;;2.03;1.93;;;25.30;89.40;;;;;;6157507;23;20893;-89
2023/09/17 11:06:29;;;;;;;1.73;1.63;;;25.30;89.30;;;;;;6157706;23;20455;-89
2023/09/17 11:08:58;;;;;;;2.17;2.07;;;25.40;89.40;;;;;;6157408;23;20431;-89
2023/09/17 11:11:27;;;;;;;1.80;1.70;;;25.40;89.50;;;;;;6157611;23;20463;-88
2023/09/17 11:13:54;;;;;;;2.07;1.97;;;25.40;89.50;;;;;;6157674;23;20434;-89
2023/09/17 11:16:24;;;;;;;1.90;1.80;;;25.40;89.50;;;;;;6157289;23;20410;-89
2023/09/17 11:19:11;;;;;;;1.80;1.70;;;25.40;89.50;;;;;;6157988;23;20482;-89
2023/09/17 11:21:39;;;;;;;1.83;1.73;;;25.40;89.50;;;;;;6157866;23;20457;-89
2023/09/17 11:24:12;;;;;;;2.00;1.90;;;25.40;89.50;;;;;;6157250;23;20400;-89
2023/09/17 11:26:41;;;;;;;1.87;1.77;;;25.40;89.60;;;;;;6157613;23;20707;-89
2023/09/17 11:29:09;;;;;;;2.17;2.07;;;25.40;89.60;;;;;;6156961;23;20518;-89
2023/09/17 11:31:57;;;;;;;1.90;1.80;;;25.40;89.60;;;;;;6157423;23;20522;-89
2023/09/17 11:34:26;;;;;;;1.87;1.77;;;25.40;89.60;;;;;;6157122;23;20402;-89
2023/09/17 11:36:53;;;;;;;2.23;2.13;;;25.40;89.70;;;;;;6157177;23;20434;-89
2023/09/17 11:39:22;;;;;;;2.03;1.93;;;25.40;90.00;;;;;;6157564;23;20421;-89
2023/09/17 11:41:52;;;;;;;2.20;2.10;;;25.40;89.70;;;;;;6156985;23;20498;-89
2023/09/17 11:44:19;;;;;;;1.80;1.70;;;25.40;89.60;;;;;;6157480;23;20431;-89
2023/09/17 11:46:46;;;;;;;1.90;1.80;;;25.40;89.80;;;;;;6157556;23;20407;-89
2023/09/17 11:49:14;;;;;;;1.97;1.87;;;25.40;89.80;;;;;;6157315;23;20407;-89
2023/09/17 11:51:45;;;;;;;1.90;1.80;;;25.40;89.80;;;;;;6157329;23;20475;-89
2023/09/17 11:54:15;;;;;;;2.20;2.10;;;25.40;89.70;;;;;;6157527;23;20423;-89
2023/09/17 11:56:46;;;;;;;2.00;1.90;;;25.40;89.80;;;;;;6157195;23;20391;-89
2023/09/17 11:59:16;;;;;;;1.87;1.77;;;25.40;89.80;;;;;;6157485;23;20426;-89
2023/09/17 12:01:46;;;;;;;1.97;1.87;;;25.40;89.80;;;;;;6157235;23;20400;-89
2023/09/17 12:04:14;;;;;;;2.00;1.90;;;25.40;89.90;;;;;;6157901;23;20406;-89
2023/09/17 12:06:48;;;;;;;1.90;1.80;;;25.40;89.90;;;;;;6157311;23;20503;-89
2023/09/17 12:09:21;;;;;;;1.67;1.57;;;25.40;89.90;;;;;;6157116;23;20710;-89
2023/09/17 12:11:48;;;;;;;2.27;2.17;;;25.40;89.80;;;;;;6157205;23;20763;-90
2023/09/17 12:14:16;;;;;;;1.90;1.80;;;25.40;89.90;;;;;;6157254;23;20490;-89
2023/09/17 12:16:43;;;;;;;2.00;1.90;;;25.40;89.90;;;;;;6157147;23;20483;-89
2023/09/17 12:19:10;;;;;;;1.80;1.70;;;25.40;89.90;;;;;;6157103;23;20487;-89
2023/09/17 12:21:41;;;;;;;2.07;1.97;;;25.50;90.00;;;;;;6156817;23;20435;-89
2023/09/17 12:24:19;;;;;;;1.80;1.70;;;25.50;90.00;;;;;;6157123;23;20479;-89
2023/09/17 12:26:54;;;;;;;1.70;1.60;;;25.50;90.00;;;;;;6157222;23;20391;-89
2023/09/17 12:29:22;;;;;;;1.70;1.60;;;25.50;90.00;;;;;;6156500;23;20435;-89
2023/09/17 12:31:50;;;;;;;1.83;1.73;;;25.50;90.00;;;;;;6156689;23;20959;-89
2023/09/17 12:34:18;;;;;;;2.00;1.90;;;25.50;90.00;;;;;;6156848;23;20435;-89
2023/09/17 12:36:44;;;;;;;1.93;1.83;;;25.50;90.00;;;;;;6156545;23;20431;-89
2023/09/17 12:39:13;;;;;;;1.73;1.63;;;25.50;90.00;;;;;;6156848;23;20424;-89
2023/09/17 12:41:40;;;;;;;1.87;1.77;;;25.50;90.00;;;;;;6156887;23;20790;-88
2023/09/17 12:44:07;;;;;;;1.80;1.70;;;25.50;90.00;;;;;;6156585;23;20891;-89
2023/09/17 12:46:34;;;;;;;2.33;2.17;;;25.50;90.00;;;;;;6157202;23;20412;-89
2023/09/17 12:49:01;;;;;;;1.70;1.60;;;25.50;90.00;;;;;;6156817;23;20503;-88
2023/09/17 12:51:28;;;;;;;2.00;1.90;;;25.50;90.00;;;;;;6156745;23;20794;-89